Pagrindinis puslapis
METAR-TAF:

METAR-TAF

Oro uostai :

Bažė, Pietų Rio Grandė, Brazilija

platuma: 31-21S, ilguma: 054-07W, Aukštis: 180 m

Dabartinis oras

Ataskaita buvo paskelbta 49 minutes, ne 04:00 UTC
Vėjas 4 kt iš Pietų/Pietvakarių
Temperatūra 12°C
Drėgmė 76%
Slėgis 1021 hPa
Matomumas 10 km arba daugiau
nėra debesų žemiau 1500 m ir nėra kamuolinių lietaus debesų

METAR: SBBG 220400Z AUTO 20004KT CAVOK 12/08 Q1021

Laikas: 01:49 (04:49 UTC)

Prognozė

Ataskaita buvo paskelbta 12 valandos ir 49 minutes, ne 16:00 UTC
Prognozė galioja nuo 21 metu 18 UTC su 22 metu 18 UTC
Vėjas 12 kt iš Pietų/Pietvakarių
Matomumas 10 km arba daugiau
Mažai debesys ne aukštis 2500 ft
Tapsmas
nuo 21 metu 20 UTC su 21 metu 21 UTC
Vėjas 8 kt iš Pietų
Matomumas 10 km arba daugiau
nėra debesų žemiau 1500 m ir nėra kamuolinių lietaus debesų

TAF: SBBG 211600Z 2118/2218 20012KT 9999 FEW025 TX23/2118Z TN08/2208Z BECMG 2120/2121 19008KT CAVOK RMK PEB

Orai ataskaitas ir orų prognozės (METAR, TAF).

turimą stotys yra geltonos ir raudonos taškus žemėlapyje.

Perkelti pele per norėdami pamatyti stoties vardą.

Tada spustelėkite, norėdami matyti oro stebėjimo ir prognozės.

Norėdami pakeisti žemėlapį: spustelėkite ant žalios mygtukų su juodo kryžiaus žemyn,; žalią mygtuką su brūkšneliu, jei norite nutolinti; arba žalių rodyklių gretimoms žemėlapius.


METAR-TAF: